Hawthorne, New Jersey
Current Conditions -  °F | °C
As of 11:51 AM on Friday 28 Nov 2014 (Local Time) from KTEB Reporting Station
Clear Clear  
Wind Chill: 25°   Ceiling: Unl
Heat Index: 35°   Visibility: 10mi
Dew Point: 19°   Wind: 17mph
Humidity: 52%   Direction: 330°NNW
Pressure: 30.16"   Gusts: 26mph
Location:  40.95°N, 74.15°W
Report Text: KTEB 281651Z 33015G23KT 10SM CLR 02/M07 A3016 RMK AO2 SLP211 T00171072 $
Loading
Personal Weather Stations






























Interactive Weather Map New forecast layout! Learn more

10-Day Weather Forecast

Advertisements
Track Severe Weather on mobile